sensor_id;sensor_type;location;lat;lon;timestamp;temperature;humidity
431;DHT22;202;48.764;9.172;2023-04-12T03:19:35;10.30;69.70
431;DHT22;202;48.764;9.172;2023-04-12T03:25:43;10.40;71.90
431;DHT22;202;48.764;9.172;2023-04-12T03:28:10;10.40;71.80
431;DHT22;202;48.764;9.172;2023-04-12T03:30:37;10.50;70.40
431;DHT22;202;48.764;9.172;2023-04-12T03:33:04;10.50;69.40
431;DHT22;202;48.764;9.172;2023-04-12T03:35:32;10.50;69.70
431;DHT22;202;48.764;9.172;2023-04-12T03:37:59;10.50;69.40
431;DHT22;202;48.764;9.172;2023-04-12T03:40:26;10.60;69.30
431;DHT22;202;48.764;9.172;2023-04-12T03:42:54;10.60;70.50
431;DHT22;202;48.764;9.172;2023-04-12T03:45:22;10.60;67.90
431;DHT22;202;48.764;9.172;2023-04-12T03:47:48;10.50;68.20
431;DHT22;202;48.764;9.172;2023-04-12T03:50:15;10.50;68.10
431;DHT22;202;48.764;9.172;2023-04-12T03:52:43;10.60;68.20
431;DHT22;202;48.764;9.172;2023-04-12T03:55:10;10.50;68.20
431;DHT22;202;48.764;9.172;2023-04-12T03:57:38;10.60;68.40
431;DHT22;202;48.764;9.172;2023-04-12T04:00:05;10.60;67.00
431;DHT22;202;48.764;9.172;2023-04-12T04:02:34;10.40;68.70
431;DHT22;202;48.764;9.172;2023-04-12T04:05:01;10.30;68.40
431;DHT22;202;48.764;9.172;2023-04-12T04:07:29;10.20;70.30
431;DHT22;202;48.764;9.172;2023-04-12T04:09:57;10.30;69.60
431;DHT22;202;48.764;9.172;2023-04-12T04:12:25;10.20;70.20
431;DHT22;202;48.764;9.172;2023-04-12T04:14:52;10.20;70.10
431;DHT22;202;48.764;9.172;2023-04-12T04:17:19;10.30;70.70
431;DHT22;202;48.764;9.172;2023-04-12T04:19:46;10.20;72.50
431;DHT22;202;48.764;9.172;2023-04-12T04:22:12;10.30;71.40
431;DHT22;202;48.764;9.172;2023-04-12T04:24:39;10.30;71.60
431;DHT22;202;48.764;9.172;2023-04-12T04:27:08;10.40;70.90
431;DHT22;202;48.764;9.172;2023-04-12T04:29:35;10.40;71.30
431;DHT22;202;48.764;9.172;2023-04-12T04:32:08;10.30;70.40
431;DHT22;202;48.764;9.172;2023-04-12T04:34:35;10.30;71.20
431;DHT22;202;48.764;9.172;2023-04-12T04:37:02;10.30;71.80
431;DHT22;202;48.764;9.172;2023-04-12T04:39:29;10.40;72.80
431;DHT22;202;48.764;9.172;2023-04-12T04:41:56;10.50;72.90
431;DHT22;202;48.764;9.172;2023-04-12T04:44:24;10.50;72.30
431;DHT22;202;48.764;9.172;2023-04-12T04:46:51;10.50;70.90
431;DHT22;202;48.764;9.172;2023-04-12T04:49:18;10.40;70.70
431;DHT22;202;48.764;9.172;2023-04-12T04:51:45;10.50;70.50
431;DHT22;202;48.764;9.172;2023-04-12T04:54:11;10.40;71.60
431;DHT22;202;48.764;9.172;2023-04-12T04:56:39;10.50;71.40
431;DHT22;202;48.764;9.172;2023-04-12T04:59:05;10.50;71.30
431;DHT22;202;48.764;9.172;2023-04-12T05:01:33;10.30;71.60
431;DHT22;202;48.764;9.172;2023-04-12T05:04:01;10.40;71.80
431;DHT22;202;48.764;9.172;2023-04-12T05:06:28;10.30;72.30
431;DHT22;202;48.764;9.172;2023-04-12T05:08:55;10.30;72.70
431;DHT22;202;48.764;9.172;2023-04-12T05:11:24;10.20;72.70
431;DHT22;202;48.764;9.172;2023-04-12T05:13:52;10.30;73.20
431;DHT22;202;48.764;9.172;2023-04-12T05:16:18;10.30;74.50
431;DHT22;202;48.764;9.172;2023-04-12T05:18:47;10.30;73.00
431;DHT22;202;48.764;9.172;2023-04-12T05:21:14;10.30;72.70
431;DHT22;202;48.764;9.172;2023-04-12T05:23:43;10.30;73.20
431;DHT22;202;48.764;9.172;2023-04-12T05:26:11;10.20;73.50
431;DHT22;202;48.764;9.172;2023-04-12T05:28:41;10.30;72.60
431;DHT22;202;48.764;9.172;2023-04-12T05:31:09;10.40;71.80
431;DHT22;202;48.764;9.172;2023-04-12T05:33:36;10.40;73.80
431;DHT22;202;48.764;9.172;2023-04-12T05:36:06;10.30;72.70
431;DHT22;202;48.764;9.172;2023-04-12T05:38:33;10.40;73.30
431;DHT22;202;48.764;9.172;2023-04-12T05:41:00;10.40;72.80
431;DHT22;202;48.764;9.172;2023-04-12T05:43:32;10.50;73.90
431;DHT22;202;48.764;9.172;2023-04-12T05:46:09;10.40;71.00
431;DHT22;202;48.764;9.172;2023-04-12T05:48:37;10.20;74.60
431;DHT22;202;48.764;9.172;2023-04-12T05:51:05;10.10;74.40
431;DHT22;202;48.764;9.172;2023-04-12T05:53:32;10.20;76.10
431;DHT22;202;48.764;9.172;2023-04-12T05:55:59;10.20;75.20
431;DHT22;202;48.764;9.172;2023-04-12T05:58:26;10.30;73.80
431;DHT22;202;48.764;9.172;2023-04-12T06:00:53;10.20;74.60
431;DHT22;202;48.764;9.172;2023-04-12T06:03:20;10.30;73.90
431;DHT22;202;48.764;9.172;2023-04-12T06:05:48;10.40;72.80
431;DHT22;202;48.764;9.172;2023-04-12T06:08:17;10.30;74.10
431;DHT22;202;48.764;9.172;2023-04-12T06:10:44;10.30;73.90
431;DHT22;202;48.764;9.172;2023-04-12T06:13:11;10.30;75.10
431;DHT22;202;48.764;9.172;2023-04-12T06:15:38;10.40;74.30
431;DHT22;202;48.764;9.172;2023-04-12T06:18:06;10.40;74.60
431;DHT22;202;48.764;9.172;2023-04-12T06:20:33;10.50;75.20
431;DHT22;202;48.764;9.172;2023-04-12T06:23:00;10.50;73.90
431;DHT22;202;48.764;9.172;2023-04-12T06:25:28;10.60;73.70
431;DHT22;202;48.764;9.172;2023-04-12T06:27:56;10.60;73.00
431;DHT22;202;48.764;9.172;2023-04-12T06:30:23;10.60;73.00
431;DHT22;202;48.764;9.172;2023-04-12T06:32:51;10.60;74.40
431;DHT22;202;48.764;9.172;2023-04-12T06:35:18;10.60;74.40
431;DHT22;202;48.764;9.172;2023-04-12T06:37:46;10.70;74.00
431;DHT22;202;48.764;9.172;2023-04-12T06:40:13;10.70;73.60
431;DHT22;202;48.764;9.172;2023-04-12T06:42:41;10.70;72.70
431;DHT22;202;48.764;9.172;2023-04-12T06:45:20;10.70;70.90
431;DHT22;202;48.764;9.172;2023-04-12T06:48:10;10.70;72.00
431;DHT22;202;48.764;9.172;2023-04-12T06:50:49;10.60;72.10
431;DHT22;202;48.764;9.172;2023-04-12T06:53:19;10.60;70.90
431;DHT22;202;48.764;9.172;2023-04-12T06:55:54;10.60;72.10
431;DHT22;202;48.764;9.172;2023-04-12T06:58:25;10.70;73.10
431;DHT22;202;48.764;9.172;2023-04-12T07:01:03;10.70;74.40
431;DHT22;202;48.764;9.172;2023-04-12T07:03:34;10.70;74.20
431;DHT22;202;48.764;9.172;2023-04-12T07:06:04;10.70;72.50
431;DHT22;202;48.764;9.172;2023-04-12T07:08:47;10.80;73.30
431;DHT22;202;48.764;9.172;2023-04-12T07:11:22;10.80;73.70
431;DHT22;202;48.764;9.172;2023-04-12T07:13:57;11.00;73.40
431;DHT22;202;48.764;9.172;2023-04-12T07:16:49;11.00;74.40
431;DHT22;202;48.764;9.172;2023-04-12T07:19:26;11.00;71.90
431;DHT22;202;48.764;9.172;2023-04-12T07:22:02;11.10;71.80
431;DHT22;202;48.764;9.172;2023-04-12T07:24:29;11.00;71.30
431;DHT22;202;48.764;9.172;2023-04-12T07:26:55;11.00;71.70
431;DHT22;202;48.764;9.172;2023-04-12T07:29:24;10.80;72.50
431;DHT22;202;48.764;9.172;2023-04-12T07:31:54;10.90;73.30
431;DHT22;202;48.764;9.172;2023-04-12T07:34:21;11.00;74.20
431;DHT22;202;48.764;9.172;2023-04-12T07:36:48;11.10;73.50
431;DHT22;202;48.764;9.172;2023-04-12T07:39:15;11.10;73.60
431;DHT22;202;48.764;9.172;2023-04-12T07:41:52;11.20;72.80
431;DHT22;202;48.764;9.172;2023-04-12T07:44:37;11.20;73.70
431;DHT22;202;48.764;9.172;2023-04-12T07:47:04;11.20;71.70
431;DHT22;202;48.764;9.172;2023-04-12T07:49:31;11.00;71.40
431;DHT22;202;48.764;9.172;2023-04-12T07:51:58;11.00;73.00
431;DHT22;202;48.764;9.172;2023-04-12T07:54:28;11.20;72.40
431;DHT22;202;48.764;9.172;2023-04-12T07:56:58;11.20;71.90
431;DHT22;202;48.764;9.172;2023-04-12T07:59:25;11.40;71.90
431;DHT22;202;48.764;9.172;2023-04-12T08:01:53;11.40;71.80
431;DHT22;202;48.764;9.172;2023-04-12T08:04:20;11.50;71.30
431;DHT22;202;48.764;9.172;2023-04-12T08:06:47;11.60;70.80
431;DHT22;202;48.764;9.172;2023-04-12T08:09:14;11.50;69.10
431;DHT22;202;48.764;9.172;2023-04-12T08:11:40;11.50;69.80
431;DHT22;202;48.764;9.172;2023-04-12T08:14:07;11.60;70.90
431;DHT22;202;48.764;9.172;2023-04-12T08:16:35;11.50;71.10
431;DHT22;202;48.764;9.172;2023-04-12T08:19:03;11.60;70.80
431;DHT22;202;48.764;9.172;2023-04-12T08:21:30;11.60;70.20
431;DHT22;202;48.764;9.172;2023-04-12T08:23:58;11.70;69.60
431;DHT22;202;48.764;9.172;2023-04-12T08:26:25;11.80;69.40
431;DHT22;202;48.764;9.172;2023-04-12T08:28:54;11.80;70.20
431;DHT22;202;48.764;9.172;2023-04-12T08:31:22;11.80;69.40
431;DHT22;202;48.764;9.172;2023-04-12T08:33:49;11.70;70.70
431;DHT22;202;48.764;9.172;2023-04-12T08:36:18;11.80;70.70
431;DHT22;202;48.764;9.172;2023-04-12T08:38:45;11.70;69.60
431;DHT22;202;48.764;9.172;2023-04-12T08:41:17;11.80;71.10
431;DHT22;202;48.764;9.172;2023-04-12T08:43:46;11.70;70.50
431;DHT22;202;48.764;9.172;2023-04-12T08:46:13;11.80;70.40
431;DHT22;202;48.764;9.172;2023-04-12T08:48:47;11.70;71.60
431;DHT22;202;48.764;9.172;2023-04-12T08:51:35;11.90;71.60
431;DHT22;202;48.764;9.172;2023-04-12T08:54:15;11.90;71.60
431;DHT22;202;48.764;9.172;2023-04-12T08:57:04;11.90;71.50
431;DHT22;202;48.764;9.172;2023-04-12T08:59:38;12.00;72.40
431;DHT22;202;48.764;9.172;2023-04-12T09:02:17;12.00;72.30
431;DHT22;202;48.764;9.172;2023-04-12T09:11:39;11.90;71.60
431;DHT22;202;48.764;9.172;2023-04-12T09:14:32;11.80;74.20
431;DHT22;202;48.764;9.172;2023-04-12T09:20:40;11.70;74.00
431;DHT22;202;48.764;9.172;2023-04-12T15:55:34;13.30;58.70
431;DHT22;202;48.764;9.172;2023-04-12T16:39:07;13.60;55.60
431;DHT22;202;48.764;9.172;2023-04-12T19:14:18;12.20;57.90
431;DHT22;202;48.764;9.172;2023-04-12T19:16:36;12.20;58.70
431;DHT22;202;48.764;9.172;2023-04-12T21:02:18;11.50;55.20
431;DHT22;202;48.764;9.172;2023-04-12T21:05:28;11.30;59.10
431;DHT22;202;48.764;9.172;2023-04-12T21:08:23;11.10;60.70
431;DHT22;202;48.764;9.172;2023-04-12T21:11:07;10.90;61.50
431;DHT22;202;48.764;9.172;2023-04-12T21:14:22;10.90;62.40
431;DHT22;202;48.764;9.172;2023-04-12T22:04:47;10.00;71.10
431;DHT22;202;48.764;9.172;2023-04-12T22:08:07;10.00;69.20
431;DHT22;202;48.764;9.172;2023-04-12T22:11:18;10.00;68.90
431;DHT22;202;48.764;9.172;2023-04-12T22:14:37;10.10;67.80
431;DHT22;202;48.764;9.172;2023-04-12T22:18:21;10.00;69.80
431;DHT22;202;48.764;9.172;2023-04-12T22:35:27;10.00;67.30
431;DHT22;202;48.764;9.172;2023-04-12T22:38:57;10.00;67.40
